Time;durP1;ratioP1;P1;durP2;ratioP2;P2;SDS_P1;SDS_P2;PMS_P1;PMS_P2;Temp;Humidity;BMP_temperature;BMP_pressure;BME280_temperature;BME280_humidity;BME280_pressure;Samples;Min_cycle;Max_cycle;Signal;HPM_P1;HPM_P2
2022/06/15 00:01:12;;;;;;;3.40;1.95;;;20.10;65.70;;;;;;5071274;28;20491;-68
2022/06/15 00:03:38;;;;;;;4.85;1.80;;;20.10;65.90;;;;;;5071261;28;20036;-68
2022/06/15 00:06:08;;;;;;;3.45;1.92;;;20.00;66.00;;;;;;5070953;28;20564;-68
2022/06/15 00:08:35;;;;;;;2.47;1.60;;;20.00;65.90;;;;;;5071554;28;20039;-69
2022/06/15 00:11:31;;;;;;;3.25;2.15;;;20.00;65.50;;;;;;5070609;28;20029;-69
2022/06/15 00:13:58;;;;;;;4.53;1.95;;;19.90;65.70;;;;;;5062908;28;20040;-69
2022/06/15 00:16:25;;;;;;;4.75;1.67;;;19.90;65.20;;;;;;5071346;28;20028;-68
2022/06/15 00:18:51;;;;;;;2.85;1.77;;;19.80;66.10;;;;;;5071294;28;20028;-68
2022/06/15 00:21:18;;;;;;;3.53;1.60;;;19.80;65.80;;;;;;5071134;28;20035;-69
2022/06/15 00:23:44;;;;;;;2.38;1.75;;;19.80;65.80;;;;;;5071472;28;20441;-68
2022/06/15 00:26:11;;;;;;;2.83;1.85;;;19.70;66.00;;;;;;5070895;28;20090;-68
2022/06/15 00:28:36;;;;;;;1.63;1.45;;;19.70;66.20;;;;;;5071525;28;20029;-68
2022/06/15 00:31:03;;;;;;;2.92;1.70;;;19.70;65.70;;;;;;5071031;28;20029;-68
2022/06/15 00:33:29;;;;;;;2.70;1.50;;;19.70;65.40;;;;;;5071269;28;20024;-68
2022/06/15 00:35:59;;;;;;;2.67;1.52;;;19.60;65.00;;;;;;5071375;28;20054;-68
2022/06/15 00:38:30;;;;;;;1.73;1.63;;;19.60;64.80;;;;;;5071345;28;20102;-68
2022/06/15 00:40:57;;;;;;;2.78;1.27;;;19.50;64.70;;;;;;5071068;28;20043;-69
2022/06/15 00:43:35;;;;;;;4.63;1.60;;;19.40;65.50;;;;;;5070813;28;20045;-68
2022/06/15 00:46:12;;;;;;;3.83;2.10;;;19.40;66.10;;;;;;5070483;28;20056;-68
2022/06/15 00:48:38;;;;;;;2.40;1.65;;;19.40;66.80;;;;;;5071205;28;20029;-68
2022/06/15 00:51:03;;;;;;;1.88;1.73;;;19.30;67.00;;;;;;5070747;28;20036;-68
2022/06/15 00:53:29;;;;;;;2.25;1.50;;;19.30;67.10;;;;;;5071101;28;20524;-68
2022/06/15 00:55:55;;;;;;;3.05;1.55;;;19.30;67.30;;;;;;5071049;28;20404;-68
2022/06/15 00:58:21;;;;;;;1.85;1.42;;;19.30;66.90;;;;;;5070543;28;20036;-68
2022/06/15 01:00:51;;;;;;;2.55;1.40;;;19.20;66.90;;;;;;5071087;28;20040;-68
2022/06/15 01:03:17;;;;;;;1.80;1.42;;;19.20;66.50;;;;;;5070393;28;20038;-68
2022/06/15 01:05:52;;;;;;;2.80;1.60;;;19.10;66.80;;;;;;5071027;28;20025;-68
2022/06/15 01:08:32;;;;;;;1.55;1.45;;;19.10;67.10;;;;;;5070537;28;20036;-68
2022/06/15 01:11:08;;;;;;;1.65;1.40;;;19.10;67.40;;;;;;5084110;28;20033;-68
2022/06/15 01:14:08;;;;;;;2.40;1.67;;;19.10;66.80;;;;;;5075744;28;20060;-68
2022/06/15 01:16:54;;;;;;;3.15;1.65;;;19.00;67.40;;;;;;5071026;28;20310;-68
2022/06/15 01:19:38;;;;;;;1.85;1.48;;;19.00;67.40;;;;;;5070892;28;20085;-68
2022/06/15 01:22:29;;;;;;;1.90;1.58;;;18.90;67.70;;;;;;5070602;28;20409;-68
2022/06/15 01:25:33;;;;;;;1.50;1.40;;;18.90;68.00;;;;;;5074496;28;20035;-68
2022/06/15 01:28:18;;;;;;;1.45;1.30;;;18.90;68.40;;;;;;5074385;28;20325;-68
2022/06/15 01:31:05;;;;;;;6.22;1.45;;;18.80;68.30;;;;;;5074539;28;20028;-68
2022/06/15 01:33:52;;;;;;;1.98;1.45;;;18.80;68.40;;;;;;5074132;28;20030;-68
2022/06/15 01:36:36;;;;;;;1.88;1.60;;;18.80;68.50;;;;;;5074044;28;20103;-68
2022/06/15 01:39:11;;;;;;;3.60;1.27;;;18.80;68.70;;;;;;5074437;28;20115;-69
2022/06/15 01:41:51;;;;;;;1.30;1.20;;;18.70;68.80;;;;;;5074522;28;20028;-68
2022/06/15 01:44:17;;;;;;;1.92;1.50;;;18.70;69.20;;;;;;5073792;28;20021;-69
2022/06/15 01:46:45;;;;;;;1.45;1.35;;;18.70;69.40;;;;;;5074297;28;20048;-69
2022/06/15 01:49:23;;;;;;;3.25;1.48;;;18.60;69.40;;;;;;5073530;28;20036;-69
2022/06/15 01:51:50;;;;;;;1.40;1.27;;;18.60;69.20;;;;;;5073919;28;20071;-69
2022/06/15 01:54:27;;;;;;;4.70;1.65;;;18.60;69.60;;;;;;5073506;28;20032;-69
2022/06/15 01:56:56;;;;;;;2.50;1.50;;;18.50;70.10;;;;;;5073653;28;20127;-69
2022/06/15 01:59:53;;;;;;;3.58;1.60;;;18.50;70.50;;;;;;5073281;28;20040;-69
2022/06/15 02:02:27;;;;;;;3.05;1.33;;;18.40;70.50;;;;;;5073741;28;20070;-68
2022/06/15 02:05:12;;;;;;;1.90;1.48;;;18.40;70.40;;;;;;5073822;28;20021;-68
2022/06/15 02:07:54;;;;;;;6.65;1.88;;;18.40;70.40;;;;;;5073700;28;20064;-68
2022/06/15 02:10:29;;;;;;;1.80;1.65;;;18.40;70.90;;;;;;5073250;28;20036;-68
2022/06/15 02:13:01;;;;;;;1.45;1.33;;;18.30;71.10;;;;;;5073621;28;20376;-68
2022/06/15 02:15:29;;;;;;;3.17;1.70;;;18.30;71.50;;;;;;5073154;28;20514;-68
2022/06/15 02:18:00;;;;;;;2.83;1.75;;;18.30;71.70;;;;;;5073422;28;20098;-68
2022/06/15 02:20:30;;;;;;;3.17;1.63;;;18.30;72.30;;;;;;5073012;28;20252;-68
2022/06/15 02:23:01;;;;;;;2.50;1.77;;;18.40;72.40;;;;;;5073393;28;20028;-69
2022/06/15 02:25:33;;;;;;;2.50;1.77;;;18.40;72.80;;;;;;5072676;28;20502;-68
2022/06/15 02:28:01;;;;;;;4.78;2.10;;;18.40;72.60;;;;;;5072928;28;20033;-68
2022/06/15 02:30:29;;;;;;;2.88;1.33;;;18.40;72.10;;;;;;5072751;28;20036;-68
2022/06/15 02:32:55;;;;;;;4.35;1.90;;;18.40;72.20;;;;;;5073523;28;20024;-67
2022/06/15 02:35:22;;;;;;;2.63;1.90;;;18.40;71.60;;;;;;5072281;28;20092;-67
2022/06/15 02:37:50;;;;;;;3.75;1.80;;;18.30;71.50;;;;;;5073145;28;20029;-68
2022/06/15 02:40:22;;;;;;;2.83;1.60;;;18.30;71.70;;;;;;5072639;28;20060;-68
2022/06/15 02:42:49;;;;;;;1.60;1.50;;;18.30;71.70;;;;;;5072931;28;20118;-68
2022/06/15 02:45:15;;;;;;;1.85;1.45;;;18.30;71.10;;;;;;5072401;28;20052;-68
2022/06/15 02:47:42;;;;;;;1.90;1.63;;;18.30;71.40;;;;;;5072516;28;20025;-68
2022/06/15 02:50:10;;;;;;;2.53;1.85;;;18.30;71.40;;;;;;5072464;28;20029;-68
2022/06/15 02:52:52;;;;;;;5.03;1.70;;;18.30;72.00;;;;;;5072714;28;20020;-68
2022/06/15 02:55:19;;;;;;;2.78;1.95;;;18.20;72.20;;;;;;5072263;28;20032;-68
2022/06/15 02:58:01;;;;;;;5.25;2.10;;;18.20;72.20;;;;;;5072626;28;20059;-67
2022/06/15 03:00:27;;;;;;;2.83;1.38;;;18.20;72.20;;;;;;5071820;28;20461;-69
2022/06/15 03:02:53;;;;;;;3.78;2.03;;;18.20;72.90;;;;;;5072192;28;20054;-68
2022/06/15 03:05:18;;;;;;;4.93;2.03;;;18.20;73.30;;;;;;5053767;28;20024;-68
2022/06/15 03:07:45;;;;;;;2.80;1.80;;;18.20;73.90;;;;;;5072313;28;20135;-68
2022/06/15 03:10:11;;;;;;;3.10;2.13;;;18.20;74.40;;;;;;5089598;28;20063;-67
2022/06/15 03:12:36;;;;;;;2.20;1.75;;;18.10;74.40;;;;;;5092820;28;20397;-69
2022/06/15 03:15:02;;;;;;;3.55;1.75;;;18.20;74.70;;;;;;5092719;28;20043;-68
2022/06/15 03:17:28;;;;;;;2.40;1.73;;;18.10;73.60;;;;;;5092066;28;20035;-68
2022/06/15 03:19:53;;;;;;;4.60;2.15;;;18.10;73.90;;;;;;5089243;28;20107;-68
2022/06/15 03:22:19;;;;;;;3.80;2.00;;;18.10;74.00;;;;;;5091391;28;20024;-68
2022/06/15 03:24:45;;;;;;;4.78;2.17;;;18.10;74.10;;;;;;5091658;28;20016;-68
2022/06/15 03:27:11;;;;;;;3.15;1.95;;;18.00;74.30;;;;;;5091562;28;20031;-68
2022/06/15 03:29:36;;;;;;;3.60;1.95;;;18.00;75.00;;;;;;5090851;28;20131;-69
2022/06/15 03:32:03;;;;;;;3.50;2.53;;;18.00;75.40;;;;;;5083668;28;20466;-68
2022/06/15 03:34:29;;;;;;;4.30;2.47;;;18.10;75.50;;;;;;5077366;28;20020;-68
2022/06/15 03:36:55;;;;;;;3.83;2.55;;;18.10;75.60;;;;;;5091939;28;20020;-68
2022/06/15 03:39:23;;;;;;;2.63;2.30;;;18.10;76.00;;;;;;5089713;28;20017;-69
2022/06/15 03:41:49;;;;;;;4.93;1.95;;;18.10;75.90;;;;;;5091899;28;20032;-68
2022/06/15 03:44:14;;;;;;;5.88;2.65;;;18.20;75.90;;;;;;5091307;28;20393;-68
2022/06/15 03:46:40;;;;;;;2.40;1.88;;;18.30;75.60;;;;;;5089975;28;20048;-68
2022/06/15 03:49:06;;;;;;;4.55;2.42;;;18.30;76.10;;;;;;5089372;28;20024;-68
2022/06/15 03:51:32;;;;;;;2.85;2.22;;;18.30;75.80;;;;;;5091111;28;20434;-68
2022/06/15 03:53:58;;;;;;;3.95;2.28;;;18.30;75.70;;;;;;5091763;28;20431;-69
2022/06/15 03:56:38;;;;;;;3.90;2.30;;;18.30;75.70;;;;;;5091230;28;20062;-68
2022/06/15 03:59:03;;;;;;;3.38;2.20;;;18.40;75.50;;;;;;5091759;28;20158;-69
2022/06/15 04:01:29;;;;;;;3.13;2.28;;;18.40;75.90;;;;;;5091481;28;20128;-68
2022/06/15 04:03:55;;;;;;;2.65;1.90;;;18.50;75.60;;;;;;5071064;28;20028;-68
2022/06/15 04:06:21;;;;;;;2.78;2.13;;;18.60;75.40;;;;;;5070976;28;20086;-69
2022/06/15 04:08:47;;;;;;;4.85;2.38;;;18.60;75.10;;;;;;5071406;28;20036;-69
2022/06/15 04:14:03;;;;;;;3.53;2.53;;;18.80;74.90;;;;;;5071690;28;20082;-68
2022/06/15 04:16:28;;;;;;;3.80;2.55;;;19.00;75.10;;;;;;5070852;28;20032;-68
2022/06/15 04:18:54;;;;;;;6.75;2.53;;;19.00;74.60;;;;;;5071319;28;20033;-68
2022/06/15 04:21:20;;;;;;;3.28;2.47;;;19.10;74.20;;;;;;5071078;28;20036;-68
2022/06/15 04:23:45;;;;;;;5.18;2.28;;;19.30;73.70;;;;;;5071547;28;20086;-68
2022/06/15 04:26:11;;;;;;;3.20;2.10;;;19.30;73.50;;;;;;5071121;28;20070;-68
2022/06/15 04:28:40;;;;;;;3.15;2.05;;;19.50;73.50;;;;;;5070805;28;20032;-68
2022/06/15 04:31:06;;;;;;;4.00;2.30;;;19.60;74.00;;;;;;5071260;28;20057;-67
2022/06/15 04:33:32;;;;;;;4.10;2.55;;;19.90;73.00;;;;;;5070522;28;20032;-69
2022/06/15 04:35:58;;;;;;;3.60;2.28;;;20.00;72.60;;;;;;5071171;28;20032;-68
2022/06/15 04:38:25;;;;;;;3.00;2.28;;;20.20;71.50;;;;;;5070528;28;20058;-67
2022/06/15 04:40:51;;;;;;;3.25;2.50;;;20.40;70.70;;;;;;5071183;28;20025;-68
2022/06/15 04:43:17;;;;;;;3.90;2.60;;;20.50;70.80;;;;;;5070454;28;20392;-68
2022/06/15 04:45:43;;;;;;;4.20;2.05;;;20.60;69.80;;;;;;5070584;28;20052;-67
2022/06/15 04:48:09;;;;;;;3.63;2.47;;;20.80;69.20;;;;;;5071057;28;20025;-69
2022/06/15 04:50:36;;;;;;;3.38;2.20;;;21.00;68.50;;;;;;5070415;28;20021;-68
2022/06/15 04:53:02;;;;;;;2.90;2.38;;;21.30;67.50;;;;;;5070885;28;20047;-68
2022/06/15 04:55:29;;;;;;;3.22;2.40;;;21.30;66.30;;;;;;5070616;28;20031;-68
2022/06/15 04:57:56;;;;;;;4.50;2.25;;;21.40;66.00;;;;;;5073415;28;20032;-69
2022/06/15 05:00:24;;;;;;;3.15;2.33;;;21.40;66.10;;;;;;5074359;28;20067;-69
2022/06/15 05:02:50;;;;;;;5.00;2.85;;;21.40;67.20;;;;;;5074609;28;20094;-69
2022/06/15 05:05:17;;;;;;;5.95;2.42;;;21.40;67.30;;;;;;5074807;28;20032;-69
2022/06/15 05:07:45;;;;;;;6.60;2.80;;;21.50;67.80;;;;;;5074234;28;20343;-70
2022/06/15 05:10:14;;;;;;;5.25;2.30;;;21.60;67.50;;;;;;5082129;28;20060;-68
2022/06/15 05:12:40;;;;;;;2.20;2.00;;;21.80;67.60;;;;;;5075926;28;20119;-68
2022/06/15 05:15:06;;;;;;;3.53;2.67;;;21.90;65.90;;;;;;5094540;28;20104;-69
2022/06/15 05:17:32;;;;;;;5.00;2.88;;;22.00;65.30;;;;;;5094352;28;20032;-68
2022/06/15 05:19:57;;;;;;;4.57;3.15;;;22.20;65.20;;;;;;5094718;28;20084;-68
2022/06/15 05:22:23;;;;;;;3.90;2.92;;;22.30;65.50;;;;;;5094076;28;20074;-68
2022/06/15 05:24:49;;;;;;;5.18;2.72;;;23.10;65.30;;;;;;5094665;28;20031;-68
2022/06/15 05:27:14;;;;;;;6.00;2.67;;;23.90;62.30;;;;;;5092549;28;20027;-69
2022/06/15 05:29:40;;;;;;;3.35;2.85;;;24.40;59.00;;;;;;5093471;28;20027;-68
2022/06/15 05:32:07;;;;;;;5.05;2.88;;;24.90;57.40;;;;;;5093901;28;20028;-68
2022/06/15 05:34:33;;;;;;;7.60;3.30;;;25.10;55.80;;;;;;5093923;28;20024;-69
2022/06/15 05:36:59;;;;;;;5.30;3.35;;;25.10;55.60;;;;;;5094345;28;20027;-68
2022/06/15 05:39:25;;;;;;;7.97;2.95;;;24.80;55.50;;;;;;5093522;28;20024;-68
2022/06/15 05:41:51;;;;;;;3.78;2.80;;;24.60;56.70;;;;;;5094365;28;20053;-69
2022/06/15 05:46:44;;;;;;;2.97;2.60;;;24.70;56.10;;;;;;5094006;28;20056;-68
2022/06/15 05:49:10;;;;;;;5.57;2.97;;;25.00;55.00;;;;;;5093974;28;20429;-68
2022/06/15 05:51:36;;;;;;;4.63;3.15;;;25.40;54.40;;;;;;5093752;28;20034;-68
2022/06/15 05:54:02;;;;;;;5.93;3.00;;;26.80;52.50;;;;;;5094157;28;20024;-69
2022/06/15 05:56:28;;;;;;;3.75;2.63;;;28.20;49.60;;;;;;5093547;28;20414;-68
2022/06/15 05:58:54;;;;;;;3.10;2.47;;;29.50;46.40;;;;;;5093731;28;20032;-68
2022/06/15 06:01:24;;;;;;;3.17;2.47;;;30.80;43.20;;;;;;5093759;28;20024;-68
2022/06/15 06:03:50;;;;;;;5.03;2.72;;;31.90;40.30;;;;;;5093871;28;20032;-68
2022/06/15 06:06:16;;;;;;;3.15;2.17;;;32.70;38.70;;;;;;5075498;28;20035;-68
2022/06/15 06:08:42;;;;;;;3.70;2.45;;;33.30;37.80;;;;;;5092441;28;20309;-68
2022/06/15 06:11:07;;;;;;;3.60;2.75;;;33.80;37.00;;;;;;5093715;28;20464;-68
2022/06/15 06:13:33;;;;;;;3.85;2.58;;;34.40;36.00;;;;;;5092933;28;20104;-68
2022/06/15 06:15:59;;;;;;;4.43;2.17;;;34.40;34.70;;;;;;5093448;28;20350;-69
2022/06/15 06:18:25;;;;;;;4.35;2.42;;;34.40;35.20;;;;;;5092792;28;20039;-68
2022/06/15 06:20:51;;;;;;;3.22;2.53;;;34.40;35.40;;;;;;5093207;28;20413;-68
2022/06/15 06:23:17;;;;;;;4.28;2.90;;;34.60;35.10;;;;;;5093556;28;20024;-69
2022/06/15 06:25:44;;;;;;;4.35;2.13;;;34.70;35.40;;;;;;5093062;28;20024;-67
2022/06/15 06:28:31;;;;;;;3.47;2.33;;;34.80;34.20;;;;;;5093159;28;20118;-69
2022/06/15 06:30:58;;;;;;;1.80;1.70;;;34.40;34.50;;;;;;5093327;28;20032;-68
2022/06/15 06:33:25;;;;;;;3.60;1.70;;;34.00;33.50;;;;;;5093107;28;20042;-69
2022/06/15 06:35:51;;;;;;;2.45;1.55;;;33.70;34.00;;;;;;5093253;28;20036;-69
2022/06/15 06:38:17;;;;;;;1.98;1.55;;;33.60;34.10;;;;;;5093293;28;20024;-70
2022/06/15 06:40:42;;;;;;;2.58;1.90;;;33.90;34.30;;;;;;5092697;28;20521;-69
2022/06/15 06:43:08;;;;;;;2.13;1.70;;;33.90;34.20;;;;;;5093301;28;20440;-69
2022/06/15 06:45:34;;;;;;;2.33;1.77;;;34.10;34.10;;;;;;5092374;28;20127;-69
2022/06/15 06:48:00;;;;;;;2.47;1.90;;;34.30;33.80;;;;;;5092340;28;20526;-69
2022/06/15 06:50:27;;;;;;;2.60;2.10;;;33.90;33.60;;;;;;5092382;28;20028;-69
2022/06/15 06:52:53;;;;;;;2.03;1.80;;;33.60;34.70;;;;;;5092861;28;20036;-70
2022/06/15 06:55:21;;;;;;;2.00;1.80;;;33.80;34.80;;;;;;5092439;28;20032;-69
2022/06/15 06:57:47;;;;;;;2.35;1.80;;;33.80;35.00;;;;;;5092176;28;20157;-69
2022/06/15 07:00:13;;;;;;;4.25;2.28;;;33.50;34.20;;;;;;5092632;28;20423;-69
2022/06/15 07:02:39;;;;;;;3.75;2.10;;;32.90;35.00;;;;;;5092225;28;20095;-69
2022/06/15 07:05:05;;;;;;;2.55;1.92;;;32.70;35.20;;;;;;5092605;28;20063;-69
2022/06/15 07:07:33;;;;;;;2.00;1.80;;;32.40;36.00;;;;;;5092079;28;20038;-67
2022/06/15 07:09:58;;;;;;;4.70;1.95;;;32.20;35.40;;;;;;5092430;28;20032;-68
2022/06/15 07:12:24;;;;;;;2.95;2.10;;;31.80;35.90;;;;;;5091632;28;20455;-68
2022/06/15 07:14:51;;;;;;;3.17;1.52;;;31.80;36.90;;;;;;5091697;28;20447;-68
2022/06/15 07:17:17;;;;;;;2.63;1.50;;;32.00;37.20;;;;;;5092171;28;20399;-69
2022/06/15 07:19:43;;;;;;;2.30;1.60;;;32.10;36.80;;;;;;5065222;28;20370;-68
2022/06/15 07:22:09;;;;;;;2.67;1.45;;;32.60;37.50;;;;;;5054122;28;20028;-68
2022/06/15 07:24:35;;;;;;;2.45;1.48;;;33.30;37.20;;;;;;5071520;28;20039;-68
2022/06/15 07:27:00;;;;;;;5.40;1.50;;;34.00;36.70;;;;;;5072003;28;20044;-68
2022/06/15 07:29:26;;;;;;;4.13;1.30;;;34.60;35.80;;;;;;5071770;28;20033;-68
2022/06/15 07:31:55;;;;;;;1.80;1.55;;;35.00;34.70;;;;;;5071461;28;20028;-70
2022/06/15 07:34:21;;;;;;;1.73;1.40;;;35.10;35.30;;;;;;5071831;28;20021;-69
2022/06/15 07:36:48;;;;;;;1.38;1.27;;;35.50;34.80;;;;;;5071332;28;20051;-68
2022/06/15 07:39:20;;;;;;;2.65;1.77;;;35.90;34.50;;;;;;5071726;28;20033;-68
2022/06/15 07:41:47;;;;;;;3.63;1.67;;;36.30;33.70;;;;;;5071297;28;20025;-67
2022/06/15 07:44:14;;;;;;;2.25;1.60;;;36.40;33.70;;;;;;5071414;28;20032;-68
2022/06/15 07:46:40;;;;;;;1.98;1.48;;;36.70;33.60;;;;;;5070759;28;20116;-68
2022/06/15 07:51:55;;;;;;;3.72;1.70;;;37.20;31.90;;;;;;5071019;28;20143;-68
2022/06/15 07:54:21;;;;;;;3.10;1.50;;;37.10;31.80;;;;;;5071484;28;20060;-68
2022/06/15 07:56:49;;;;;;;1.48;1.10;;;36.90;32.30;;;;;;5071261;28;20036;-68
2022/06/15 07:59:15;;;;;;;1.98;1.20;;;37.20;32.80;;;;;;5071480;28;20036;-69
2022/06/15 08:01:43;;;;;;;2.40;1.17;;;37.20;31.90;;;;;;5071118;28;20031;-68
2022/06/15 08:04:08;;;;;;;1.20;1.00;;;37.00;32.10;;;;;;5071246;28;20031;-68
2022/06/15 08:06:37;;;;;;;2.47;0.90;;;37.20;31.90;;;;;;5070579;28;20076;-68
2022/06/15 08:09:04;;;;;;;2.03;1.23;;;37.30;32.20;;;;;;5071492;28;20060;-68
2022/06/15 08:11:30;;;;;;;3.15;1.30;;;37.10;31.70;;;;;;5071410;28;20357;-68
2022/06/15 08:13:56;;;;;;;1.45;1.13;;;36.80;32.70;;;;;;5071129;28;20428;-68
2022/06/15 08:16:22;;;;;;;4.85;1.80;;;36.50;32.00;;;;;;5071394;28;20040;-68
2022/06/15 08:18:57;;;;;;;4.10;1.27;;;36.20;33.20;;;;;;5070807;28;20040;-68
2022/06/15 08:21:30;;;;;;;1.67;1.10;;;35.30;32.20;;;;;;5071081;28;20389;-69
2022/06/15 08:23:57;;;;;;;1.33;1.05;;;34.40;33.70;;;;;;5070636;28;20032;-68
2022/06/15 08:26:29;;;;;;;1.55;1.20;;;33.50;34.40;;;;;;5071282;28;20024;-68
2022/06/15 08:29:00;;;;;;;1.65;1.10;;;32.40;36.20;;;;;;5070977;28;20037;-68
2022/06/15 08:31:26;;;;;;;1.50;1.20;;;31.70;38.00;;;;;;5071561;28;20048;-69
2022/06/15 08:33:52;;;;;;;1.25;1.15;;;31.20;38.10;;;;;;5075059;28;20090;-69
2022/06/15 08:36:21;;;;;;;1.75;1.40;;;30.70;38.50;;;;;;5075043;28;20024;-68
2022/06/15 08:38:47;;;;;;;1.42;1.30;;;29.80;39.70;;;;;;5074877;28;20035;-68
2022/06/15 08:41:45;;;;;;;2.47;1.45;;;29.40;41.30;;;;;;5075334;28;20027;-68
2022/06/15 08:44:23;;;;;;;2.45;1.40;;;28.90;41.20;;;;;;5075090;28;20016;-68
2022/06/15 08:46:58;;;;;;;2.10;1.30;;;28.40;42.40;;;;;;5075112;28;20040;-68
2022/06/15 08:49:53;;;;;;;2.80;1.48;;;28.20;43.50;;;;;;5075231;28;20044;-69
2022/06/15 08:52:37;;;;;;;3.17;1.40;;;28.10;43.80;;;;;;5053172;28;20046;-69
2022/06/15 08:55:16;;;;;;;2.53;1.35;;;27.70;43.10;;;;;;5075298;28;20361;-69
2022/06/15 08:57:51;;;;;;;2.35;1.70;;;27.30;44.50;;;;;;5074373;28;20449;-69
2022/06/15 09:00:21;;;;;;;1.58;1.33;;;27.00;44.80;;;;;;5075042;28;20027;-69
2022/06/15 09:02:53;;;;;;;1.65;1.33;;;26.90;45.80;;;;;;5074499;28;20464;-69
2022/06/15 09:05:40;;;;;;;2.05;1.40;;;26.90;46.20;;;;;;5074881;28;20032;-69
2022/06/15 09:08:08;;;;;;;1.60;1.48;;;27.00;46.80;;;;;;5074556;28;20125;-69
2022/06/15 09:10:37;;;;;;;3.08;1.33;;;26.80;46.30;;;;;;5056785;28;20372;-68
2022/06/15 09:13:12;;;;;;;4.05;1.70;;;26.60;45.20;;;;;;5074647;28;20035;-68
2022/06/15 09:16:03;;;;;;;1.83;1.23;;;26.40;45.30;;;;;;5058745;28;20385;-69
2022/06/15 09:18:36;;;;;;;;;;;26.40;45.60;;;;;;5093761;28;20441;-69
2022/06/15 09:21:41;;;;;;;2.15;1.42;;;26.40;45.30;;;;;;5094804;28;19904;-70
2022/06/15 09:24:40;;;;;;;1.70;1.20;;;26.30;46.10;;;;;;5094659;28;20032;-70
2022/06/15 09:27:12;;;;;;;2.10;1.33;;;26.20;46.10;;;;;;5089862;28;20054;-69
2022/06/15 09:29:46;;;;;;;1.75;1.25;;;26.20;46.50;;;;;;5094072;28;20084;-68
2022/06/15 09:32:17;;;;;;;2.42;1.38;;;26.30;46.20;;;;;;5094504;28;20101;-69
2022/06/15 09:35:07;;;;;;;1.70;1.30;;;26.10;46.30;;;;;;5094201;28;20424;-69
2022/06/15 09:37:35;;;;;;;4.97;1.65;;;26.00;46.80;;;;;;5094666;28;20047;-69
2022/06/15 09:40:04;;;;;;;3.42;1.48;;;25.90;46.90;;;;;;5094727;28;20024;-69
2022/06/15 09:43:09;;;;;;;2.30;1.55;;;26.00;47.70;;;;;;5094297;28;20032;-69
2022/06/15 09:45:46;;;;;;;1.67;1.38;;;26.00;47.50;;;;;;5094138;28;20142;-69
2022/06/15 09:48:12;;;;;;;2.95;1.40;;;26.10;48.00;;;;;;5094196;28;20044;-69
2022/06/15 09:50:45;;;;;;;1.35;1.25;;;26.10;47.50;;;;;;5094000;28;20379;-69
2022/06/15 09:53:38;;;;;;;4.20;1.75;;;26.10;47.60;;;;;;5094163;28;20490;-69
2022/06/15 09:56:08;;;;;;;4.53;2.28;;;26.10;48.00;;;;;;5094460;28;20074;-69
2022/06/15 09:58:42;;;;;;;1.20;1.10;;;26.00;47.70;;;;;;5094426;28;20028;-69
2022/06/15 10:01:10;;;;;;;1.55;1.30;;;26.10;48.70;;;;;;5094228;28;20024;-69
2022/06/15 10:03:46;;;;;;;2.28;1.33;;;26.20;48.20;;;;;;5094356;28;20077;-69
2022/06/15 10:06:29;;;;;;;2.17;1.42;;;26.30;48.40;;;;;;5094166;28;20031;-70
2022/06/15 10:08:57;;;;;;;1.88;1.60;;;26.30;47.90;;;;;;5093637;28;20349;-68
2022/06/15 10:11:50;;;;;;;2.17;1.45;;;26.40;48.10;;;;;;5093907;28;20031;-69
2022/06/15 10:14:31;;;;;;;3.53;1.63;;;26.50;47.80;;;;;;5089999;28;20036;-68
2022/06/15 10:16:56;;;;;;;;;;;26.50;48.30;;;;;;5093694;28;20028;-68
2022/06/15 10:19:24;;;;;;;2.03;1.50;;;26.60;48.50;;;;;;5093445;28;19904;-68
2022/06/15 10:22:05;;;;;;;2.97;1.38;;;26.70;47.70;;;;;;5092703;28;20490;-67
2022/06/15 10:24:35;;;;;;;1.67;1.30;;;26.70;48.20;;;;;;5093419;28;20024;-68
2022/06/15 10:27:16;;;;;;;1.98;1.42;;;26.80;46.90;;;;;;5092739;28;20035;-68
2022/06/15 10:29:44;;;;;;;2.95;1.85;;;26.70;46.80;;;;;;5092892;28;20056;-68
2022/06/15 10:32:10;;;;;;;2.42;1.48;;;26.70;47.90;;;;;;5093224;28;20031;-68
2022/06/15 10:34:54;;;;;;;1.98;1.60;;;26.70;47.30;;;;;;5093174;28;20130;-69
2022/06/15 10:37:28;;;;;;;2.00;1.60;;;26.60;47.70;;;;;;5093285;28;20104;-68
2022/06/15 10:39:58;;;;;;;3.45;1.55;;;26.50;47.90;;;;;;5093038;28;20032;-68
2022/06/15 10:42:24;;;;;;;4.25;1.13;;;26.50;48.20;;;;;;5093352;28;20138;-69
2022/06/15 10:44:59;;;;;;;2.15;1.50;;;26.60;48.00;;;;;;5092470;28;20124;-67
2022/06/15 10:47:51;;;;;;;1.42;1.33;;;26.60;48.10;;;;;;5092635;28;20561;-68
2022/06/15 10:50:21;;;;;;;3.50;1.80;;;26.50;48.00;;;;;;5092952;28;20028;-68
2022/06/15 10:52:59;;;;;;;1.60;1.40;;;26.50;48.10;;;;;;5092658;28;20081;-68
2022/06/15 11:04:23;;;;;;;1.23;1.13;;;26.50;48.50;;;;;;5092993;28;20131;-69
2022/06/15 11:06:52;;;;;;;3.53;1.55;;;26.40;48.10;;;;;;5092552;28;20085;-68
2022/06/15 11:09:32;;;;;;;1.60;1.50;;;26.40;48.30;;;;;;5092384;28;20062;-68
2022/06/15 11:12:01;;;;;;;4.55;1.90;;;26.40;48.60;;;;;;5092003;28;20024;-68
2022/06/15 11:14:34;;;;;;;1.40;1.30;;;26.40;48.60;;;;;;5092513;28;20027;-68
2022/06/15 11:20:34;;;;;;;1.73;1.40;;;26.20;48.00;;;;;;5046758;28;20040;-69
2022/06/15 11:23:14;;;;;;;2.03;1.38;;;26.20;48.60;;;;;;5072127;28;20028;-68
2022/06/15 11:28:56;;;;;;;5.00;1.42;;;26.20;49.50;;;;;;5071501;28;20043;-68
2022/06/15 11:31:26;;;;;;;1.67;1.45;;;26.20;49.60;;;;;;5072178;28;20035;-68
2022/06/15 11:34:06;;;;;;;1.98;1.33;;;26.30;49.00;;;;;;5071677;28;20064;-68
2022/06/15 11:36:46;;;;;;;2.45;1.38;;;26.20;49.20;;;;;;5071812;28;20064;-68
2022/06/15 11:39:26;;;;;;;2.90;1.40;;;26.20;49.00;;;;;;5071846;28;20499;-69
2022/06/15 11:41:57;;;;;;;1.95;1.60;;;26.30;49.30;;;;;;5071803;28;20031;-68
2022/06/15 11:44:27;;;;;;;1.92;1.38;;;26.40;49.60;;;;;;5071577;28;20366;-68
2022/06/15 11:46:55;;;;;;;1.73;1.60;;;26.30;48.30;;;;;;5071399;28;20105;-68
2022/06/15 11:49:36;;;;;;;1.83;1.58;;;26.40;48.80;;;;;;5071579;28;20308;-68
2022/06/15 11:52:15;;;;;;;2.45;1.40;;;26.40;48.90;;;;;;5071531;28;20110;-68
2022/06/15 11:55:07;;;;;;;5.20;1.98;;;26.20;48.90;;;;;;5072005;28;20052;-68
2022/06/15 11:57:50;;;;;;;4.18;1.40;;;26.10;49.20;;;;;;5071775;28;20103;-68
2022/06/15 12:00:31;;;;;;;2.22;1.45;;;26.10;49.70;;;;;;5071800;28;20029;-68
2022/06/15 12:03:22;;;;;;;2.63;1.70;;;26.00;49.30;;;;;;5071533;28;20469;-68
2022/06/15 12:05:50;;;;;;;2.08;1.50;;;25.90;50.00;;;;;;5071056;28;20473;-68
2022/06/15 12:08:27;;;;;;;2.97;1.75;;;25.80;50.70;;;;;;5071148;28;20032;-68
2022/06/15 12:11:00;;;;;;;1.95;1.27;;;25.70;50.50;;;;;;5071195;28;20067;-68
2022/06/15 12:13:46;;;;;;;2.15;1.17;;;25.60;50.70;;;;;;5071425;28;20372;-68
2022/06/15 12:16:26;;;;;;;4.30;1.27;;;25.50;50.40;;;;;;5071360;28;20159;-68
2022/06/15 12:19:13;;;;;;;2.50;1.75;;;25.50;50.40;;;;;;5071510;28;20094;-68
2022/06/15 12:21:58;;;;;;;3.53;1.95;;;25.50;51.10;;;;;;5071365;28;20111;-68
2022/06/15 12:24:52;;;;;;;5.28;1.63;;;25.50;51.30;;;;;;5071642;28;20044;-68
2022/06/15 12:27:34;;;;;;;2.33;1.40;;;25.50;51.40;;;;;;5071383;28;20028;-68
2022/06/15 12:30:30;;;;;;;1.45;1.35;;;25.50;52.10;;;;;;5071156;28;20044;-68
2022/06/15 12:33:20;;;;;;;2.00;1.50;;;25.50;51.30;;;;;;5066362;28;20056;-68
2022/06/15 12:35:53;;;;;;;3.35;1.67;;;25.50;51.50;;;;;;5071291;28;20021;-69
2022/06/15 12:38:44;;;;;;;3.45;1.42;;;25.50;51.20;;;;;;5071687;28;20094;-69
2022/06/15 12:44:12;;;;;;;1.58;1.40;;;25.40;51.60;;;;;;5071077;28;20114;-70
2022/06/15 12:46:38;;;;;;;1.98;1.40;;;25.50;51.50;;;;;;5071563;28;20056;-68
2022/06/15 12:49:20;;;;;;;3.70;1.52;;;25.40;51.90;;;;;;5070943;28;20068;-68
2022/06/15 12:52:14;;;;;;;2.05;1.63;;;25.40;51.10;;;;;;5071635;28;20125;-69
2022/06/15 12:55:09;;;;;;;2.50;1.70;;;25.40;51.70;;;;;;5071023;28;20488;-69
2022/06/15 12:57:41;;;;;;;2.25;1.48;;;25.50;52.00;;;;;;5071593;28;20032;-69
2022/06/15 13:00:25;;;;;;;2.15;1.67;;;25.50;52.60;;;;;;5070748;28;20028;-68
2022/06/15 13:03:09;;;;;;;1.52;1.40;;;25.50;51.30;;;;;;5070865;28;20024;-69
2022/06/15 13:05:38;;;;;;;1.17;1.13;;;25.50;51.40;;;;;;5070905;28;20102;-69
2022/06/15 13:08:15;;;;;;;1.83;1.65;;;25.50;51.20;;;;;;5078104;28;20028;-69
2022/06/15 13:10:55;;;;;;;3.80;1.60;;;25.50;51.10;;;;;;5089175;28;20483;-69
2022/06/15 13:13:28;;;;;;;1.90;1.30;;;25.50;51.10;;;;;;5070774;28;20464;-69
2022/06/15 13:15:59;;;;;;;2.20;1.40;;;25.50;50.80;;;;;;5070690;28;20108;-69
2022/06/15 13:18:48;;;;;;;2.08;1.40;;;25.50;51.20;;;;;;5073023;28;20040;-69
2022/06/15 13:21:17;;;;;;;1.83;1.45;;;25.50;50.70;;;;;;5074381;28;20036;-69
2022/06/15 13:23:59;;;;;;;4.85;1.45;;;25.50;51.40;;;;;;5074392;28;20029;-69
2022/06/15 13:26:32;;;;;;;2.50;1.45;;;25.50;50.90;;;;;;5074719;28;20135;-69
2022/06/15 13:28:58;;;;;;;2.92;1.58;;;25.50;50.90;;;;;;5074155;28;20036;-70
2022/06/15 13:31:48;;;;;;;1.73;1.27;;;25.60;50.40;;;;;;5074059;28;20457;-69
2022/06/15 13:34:33;;;;;;;2.40;1.40;;;25.60;49.90;;;;;;5074047;28;20032;-69
2022/06/15 13:37:14;;;;;;;2.20;1.50;;;25.60;50.80;;;;;;5072508;28;20381;-69
2022/06/15 13:39:43;;;;;;;;;;;25.70;51.20;;;;;;5074863;28;20433;-69